createdAt,value
2018-02-10T00:00:22.770Z,3.64
2018-02-10T00:01:03.186Z,3.77
2018-02-10T00:01:43.553Z,3.8
2018-02-10T00:02:23.937Z,3.82
2018-02-10T00:03:04.315Z,3.7
2018-02-10T00:03:44.721Z,3.77
2018-02-10T00:04:25.100Z,3.8
2018-02-10T00:05:05.453Z,3.6
2018-02-10T00:05:45.869Z,3.62
2018-02-10T00:06:26.247Z,3.62
2018-02-10T00:07:06.662Z,3.71
2018-02-10T00:07:47.014Z,3.67
2018-02-10T00:08:27.423Z,3.7
2018-02-10T00:09:07.831Z,3.63
2018-02-10T00:09:48.246Z,3.56
2018-02-10T00:10:28.662Z,3.57
2018-02-10T00:11:09.099Z,3.46
2018-02-10T00:13:01.521Z,3.59
2018-02-10T00:13:41.792Z,3.54
2018-02-10T00:14:22.211Z,3.56
2018-02-10T00:15:02.724Z,3.63
2018-02-10T00:15:43.115Z,3.62
2018-02-10T00:16:23.523Z,3.57
2018-02-10T00:17:03.920Z,3.67
2018-02-10T00:17:44.317Z,3.64
2018-02-10T00:19:56.791Z,3.54
2018-02-10T00:20:37.861Z,3.56
2018-02-10T00:21:18.161Z,3.53
2018-02-10T00:21:58.575Z,3.59
2018-02-10T00:22:38.956Z,3.64
2018-02-10T00:24:26.207Z,3.81
2018-02-10T00:25:06.672Z,3.8
2018-02-10T00:25:47.109Z,3.9
2018-02-10T00:26:27.515Z,3.95
2018-02-10T00:27:07.931Z,3.82
2018-02-10T00:27:48.334Z,3.95
2018-02-10T00:28:28.720Z,3.9
2018-02-10T00:29:09.146Z,4.07
2018-02-10T00:29:49.513Z,3.95
2018-02-10T00:30:29.902Z,3.99
2018-02-10T00:31:10.287Z,4.06
2018-02-10T00:31:50.706Z,4.04
2018-02-10T00:33:28.210Z,4.18
2018-02-10T00:34:08.375Z,4.14
2018-02-10T00:34:48.797Z,4.25
2018-02-10T00:35:29.208Z,4.26
2018-02-10T00:36:09.623Z,4.25
2018-02-10T00:36:50.047Z,4.26
2018-02-10T00:38:48.446Z,4.16
2018-02-10T00:39:29.020Z,4.1
2018-02-10T00:40:09.434Z,4.07
2018-02-10T00:40:49.824Z,4.06
2018-02-10T00:42:42.557Z,4.29
2018-02-10T00:43:22.719Z,4.31
2018-02-10T00:44:04.486Z,4.29
2018-02-10T00:44:44.723Z,4.28
2018-02-10T00:45:25.175Z,4.38
2018-02-10T00:46:05.525Z,4.31
2018-02-10T00:46:45.896Z,4.35
2018-02-10T00:47:26.291Z,4.26
2018-02-10T00:48:06.647Z,4.32
2018-02-10T00:48:47.029Z,4.36
2018-02-10T00:49:27.432Z,4.29
2018-02-10T00:50:07.836Z,4.26
2018-02-10T00:50:48.221Z,4.17
2018-02-10T00:51:28.615Z,4.14
2018-02-10T00:53:26.250Z,4.1
2018-02-10T00:54:06.424Z,4.07
2018-02-10T00:54:46.864Z,4
2018-02-10T00:55:27.227Z,4.04
2018-02-10T00:56:07.662Z,4.04
2018-02-10T00:56:48.034Z,3.95
2018-02-10T00:57:28.452Z,3.96
2018-02-10T00:58:08.820Z,3.95
2018-02-10T00:58:49.218Z,3.9
2018-02-10T00:59:29.574Z,3.88
2018-02-10T01:00:10.014Z,3.77
2018-02-10T01:00:50.386Z,3.77
2018-02-10T01:01:30.783Z,3.67
2018-02-10T01:02:11.128Z,3.67
2018-02-10T01:02:51.564Z,3.56
2018-02-10T01:03:31.951Z,3.62
2018-02-10T01:05:19.252Z,3.62
2018-02-10T01:05:59.693Z,3.62
2018-02-10T01:06:40.324Z,3.74
2018-02-10T01:07:20.728Z,3.63
2018-02-10T01:08:01.141Z,3.75
2018-02-10T01:08:41.541Z,3.7
2018-02-10T01:09:21.915Z,3.6
2018-02-10T01:10:02.326Z,3.74
2018-02-10T01:10:42.729Z,3.7
2018-02-10T01:11:23.107Z,3.54
2018-02-10T01:12:03.486Z,3.62
2018-02-10T01:12:43.869Z,3.67
2018-02-10T01:13:24.277Z,3.67
2018-02-10T01:14:04.654Z,3.67
2018-02-10T01:16:17.281Z,3.62
2018-02-10T01:16:57.521Z,3.62
2018-02-10T01:17:37.935Z,3.68
2018-02-10T01:18:18.320Z,3.63
2018-02-10T01:18:58.704Z,3.71
2018-02-10T01:19:39.085Z,3.67
2018-02-10T01:20:19.518Z,3.8
2018-02-10T01:20:59.901Z,3.8
2018-02-10T01:21:40.295Z,3.88
2018-02-10T01:22:20.655Z,3.82
2018-02-10T01:24:33.132Z,3.81
2018-02-10T01:25:13.519Z,3.78
2018-02-10T01:25:53.930Z,3.78
2018-02-10T01:26:34.333Z,3.78
2018-02-10T01:27:14.756Z,3.81
2018-02-10T01:27:55.181Z,3.95
2018-02-10T01:28:35.584Z,3.92
2018-02-10T01:29:16.001Z,4
2018-02-10T01:29:56.425Z,3.93
2018-02-10T01:30:36.799Z,3.98
2018-02-10T01:31:17.182Z,4
2018-02-10T01:31:57.592Z,4.08
2018-02-10T01:32:37.983Z,4.13
2018-02-10T01:33:18.390Z,4.13
2018-02-10T01:33:58.769Z,4.13
2018-02-10T01:34:39.154Z,4.16
2018-02-10T01:35:19.522Z,4.18
2018-02-10T01:35:59.922Z,4.26
2018-02-10T01:36:40.297Z,4.2
2018-02-10T01:37:20.681Z,4.14
2018-02-10T01:38:01.079Z,4.18
2018-02-10T01:38:41.483Z,4.29
2018-02-10T01:39:21.913Z,4.31
2018-02-10T01:40:02.332Z,4.32
2018-02-10T01:40:42.701Z,4.32
2018-02-10T01:41:23.123Z,4.42
2018-02-10T01:42:03.534Z,4.42
2018-02-10T01:42:43.959Z,4.5
2018-02-10T01:43:24.355Z,4.56
2018-02-10T01:44:04.754Z,4.53
2018-02-10T01:44:45.152Z,4.62
2018-02-10T01:45:25.582Z,4.64
2018-02-10T01:46:06.012Z,4.61
2018-02-10T01:46:46.354Z,4.5
2018-02-10T01:47:26.778Z,4.53
2018-02-10T01:48:07.194Z,4.62
2018-02-10T01:48:47.562Z,4.61
2018-02-10T01:49:27.961Z,4.51
2018-02-10T01:50:08.353Z,4.61
2018-02-10T01:50:48.754Z,4.65
2018-02-10T01:51:29.144Z,4.57
2018-02-10T01:52:09.580Z,4.53
2018-02-10T01:52:49.955Z,4.57
2018-02-10T01:53:30.346Z,4.46
2018-02-10T01:54:10.741Z,4.49
2018-02-10T01:54:51.140Z,4.42
2018-02-10T01:55:31.544Z,4.42
2018-02-10T01:56:11.926Z,4.43
2018-02-10T01:56:52.292Z,4.47
2018-02-10T01:57:32.676Z,4.49
2018-02-10T01:58:13.044Z,4.51
2018-02-10T01:58:53.440Z,4.5
2018-02-10T01:59:33.847Z,4.61
2018-02-10T02:00:14.279Z,4.61
2018-02-10T02:00:54.653Z,4.68
2018-02-10T02:01:35.027Z,4.64
2018-02-10T02:02:15.425Z,4.64
2018-02-10T02:02:55.804Z,4.65
2018-02-10T02:03:36.205Z,4.64
2018-02-10T02:04:16.607Z,4.61
2018-02-10T02:04:57.015Z,4.53
2018-02-10T02:05:37.378Z,4.62
2018-02-10T02:06:17.790Z,4.59
2018-02-10T02:06:58.201Z,4.61
2018-02-10T02:07:38.603Z,4.53
2018-02-10T02:08:19.001Z,4.61
2018-02-10T02:08:59.401Z,4.62
2018-02-10T02:09:39.804Z,4.54
2018-02-10T02:10:20.202Z,4.68
2018-02-10T02:12:07.430Z,4.67
2018-02-10T02:12:47.842Z,4.68
2018-02-10T02:13:28.264Z,4.64
2018-02-10T02:14:08.694Z,4.64
2018-02-10T02:14:49.111Z,4.69
2018-02-10T02:15:29.529Z,4.67
2018-02-10T02:16:09.944Z,4.72
2018-02-10T02:16:50.346Z,4.71
2018-02-10T02:17:30.728Z,4.61
2018-02-10T02:18:11.128Z,4.69
2018-02-10T02:18:51.531Z,4.62
2018-02-10T02:19:31.916Z,4.59
2018-02-10T02:20:12.303Z,4.62
2018-02-10T02:20:52.702Z,4.59
2018-02-10T02:21:33.095Z,4.68
2018-02-10T02:22:13.498Z,4.61
2018-02-10T02:22:53.850Z,4.65
2018-02-10T02:23:34.232Z,4.61
2018-02-10T02:24:14.629Z,4.61
2018-02-10T02:24:55.041Z,4.72
2018-02-10T02:25:35.437Z,4.72
2018-02-10T02:26:15.833Z,4.69
2018-02-10T02:26:56.212Z,4.72
2018-02-10T02:27:36.582Z,4.68
2018-02-10T02:28:17.005Z,4.77
2018-02-10T02:28:57.375Z,4.8
2018-02-10T02:29:37.784Z,4.65
2018-02-10T02:30:18.119Z,4.72
2018-02-10T02:31:55.273Z,4.72
2018-02-10T02:32:35.692Z,4.67
2018-02-10T02:33:16.103Z,4.68
2018-02-10T02:33:56.783Z,4.65
2018-02-10T02:36:09.244Z,4.71
2018-02-10T02:36:49.902Z,4.69
2018-02-10T02:37:30.075Z,4.77
2018-02-10T02:38:10.463Z,4.8
2018-02-10T02:38:50.843Z,4.91
2018-02-10T02:39:31.237Z,4.91
2018-02-10T02:40:11.654Z,4.86
2018-02-10T02:40:52.063Z,4.93
2018-02-10T02:41:32.482Z,4.93
2018-02-10T02:42:12.884Z,4.91
2018-02-10T02:42:53.319Z,4.9
2018-02-10T02:43:33.717Z,4.96
2018-02-10T02:44:14.122Z,4.88
2018-02-10T02:44:54.518Z,4.87
2018-02-10T02:45:34.913Z,4.96
2018-02-10T02:46:15.300Z,4.91
2018-02-10T02:46:55.673Z,4.96
2018-02-10T02:47:36.083Z,4.9
2018-02-10T02:48:16.477Z,4.91
2018-02-10T02:48:56.878Z,4.99
2018-02-10T02:51:09.376Z,5.05
2018-02-10T02:51:49.767Z,4.88
2018-02-10T02:52:30.193Z,4.94
2018-02-10T02:53:10.609Z,4.83
2018-02-10T02:53:51.055Z,4.91
2018-02-10T02:54:31.474Z,4.96
2018-02-10T02:55:11.856Z,4.93
2018-02-10T02:56:59.122Z,4.94
2018-02-10T02:57:39.558Z,4.93
2018-02-10T02:58:19.974Z,5.06
2018-02-10T02:59:00.395Z,5.04
2018-02-10T02:59:40.822Z,5.01
2018-02-10T03:00:21.224Z,5.02
2018-02-10T03:01:01.630Z,4.99
2018-02-10T03:01:42.016Z,4.97
2018-02-10T03:02:22.438Z,4.84
2018-02-10T03:03:02.867Z,4.77
2018-02-10T03:03:43.279Z,4.8
2018-02-10T03:04:23.675Z,4.77
2018-02-10T03:05:04.053Z,4.77
2018-02-10T03:05:44.443Z,4.75
2018-02-10T03:06:24.828Z,4.75
2018-02-10T03:07:05.218Z,4.77
2018-02-10T03:07:45.623Z,4.75
2018-02-10T03:08:26.017Z,4.67
2018-02-10T03:09:06.389Z,4.72
2018-02-10T03:09:46.792Z,4.61
2018-02-10T03:10:27.175Z,4.57
2018-02-10T03:11:07.550Z,4.65
2018-02-10T03:11:47.930Z,4.72
2018-02-10T03:12:28.327Z,4.69
2018-02-10T03:13:08.747Z,4.8
2018-02-10T03:13:49.165Z,4.71
2018-02-10T03:14:29.570Z,4.68
2018-02-10T03:16:16.821Z,4.71
2018-02-10T03:16:57.246Z,4.68
2018-02-10T03:17:37.676Z,4.69
2018-02-10T03:18:18.111Z,4.75
2018-02-10T03:18:58.530Z,4.77
2018-02-10T03:19:38.950Z,4.77
2018-02-10T03:20:19.356Z,4.79
2018-02-10T03:20:59.753Z,4.77
2018-02-10T03:21:40.141Z,4.84
2018-02-10T03:22:20.557Z,4.91
2018-02-10T03:23:00.965Z,4.91
2018-02-10T03:23:41.368Z,4.91
2018-02-10T03:24:21.758Z,5.02
2018-02-10T03:25:02.139Z,5.06
2018-02-10T03:25:42.537Z,5.12
2018-02-10T03:26:22.923Z,5.24
2018-02-10T03:27:03.322Z,5.29
2018-02-10T03:27:43.707Z,5.37
2018-02-10T03:28:24.079Z,5.32
2018-02-10T03:29:04.474Z,5.23
2018-02-10T03:29:44.867Z,5.29
2018-02-10T03:30:25.265Z,5.19
2018-02-10T03:31:05.657Z,5.32
2018-02-10T03:31:46.065Z,5.3
2018-02-10T03:32:26.484Z,5.22
2018-02-10T03:33:06.860Z,5.33
2018-02-10T03:33:47.258Z,5.27
2018-02-10T03:34:27.630Z,5.26
2018-02-10T03:35:08.025Z,5.24
2018-02-10T03:35:48.453Z,5.24
2018-02-10T03:36:28.869Z,5.32
2018-02-10T03:37:09.280Z,5.32
2018-02-10T03:37:49.679Z,5.32
2018-02-10T03:38:30.075Z,5.32
2018-02-10T03:39:10.535Z,5.37
2018-02-10T03:39:50.882Z,5.4
2018-02-10T03:40:31.290Z,5.37
2018-02-10T03:41:11.696Z,5.44
2018-02-10T03:41:52.077Z,5.41
2018-02-10T03:42:32.507Z,5.29
2018-02-10T03:43:12.924Z,5.37
2018-02-10T03:43:53.325Z,5.32
2018-02-10T03:44:33.728Z,5.27
2018-02-10T03:45:14.117Z,5.3
2018-02-10T03:45:54.541Z,5.32
2018-02-10T03:46:34.953Z,5.33
2018-02-10T03:47:15.341Z,5.37
2018-02-10T03:47:55.754Z,5.27
2018-02-10T03:48:36.150Z,5.2
2018-02-10T03:49:16.549Z,5.29
2018-02-10T03:49:56.970Z,5.27
2018-02-10T03:50:37.374Z,5.33
2018-02-10T03:51:17.803Z,5.29
2018-02-10T03:51:58.211Z,5.47
2018-02-10T03:52:38.633Z,5.6
2018-02-10T03:53:19.053Z,5.6
2018-02-10T03:53:59.476Z,5.6
2018-02-10T03:54:39.888Z,5.63
2018-02-10T03:55:20.318Z,5.62
2018-02-10T03:56:00.727Z,5.66
2018-02-10T03:56:41.144Z,5.69
2018-02-10T03:57:21.535Z,5.56
2018-02-10T03:58:01.950Z,5.65
2018-02-10T03:58:42.348Z,5.58
2018-02-10T03:59:22.756Z,5.63
2018-02-10T04:00:03.169Z,5.63
2018-02-10T04:00:43.599Z,5.66
2018-02-10T04:01:23.995Z,5.58
2018-02-10T04:02:04.401Z,5.62
2018-02-10T04:02:44.778Z,5.69
2018-02-10T04:43:06.996Z,5.87
2018-02-10T04:43:47.092Z,5.9
2018-02-10T04:44:27.349Z,5.92
2018-02-10T04:45:07.700Z,5.93
2018-02-10T04:45:48.126Z,5.84
2018-02-10T04:46:28.562Z,5.8
2018-02-10T04:47:08.882Z,5.87
2018-02-10T04:47:49.297Z,5.87
2018-02-10T04:48:29.718Z,5.84
2018-02-10T04:49:10.095Z,5.78
2018-02-10T04:51:22.632Z,6.01
2018-02-10T04:52:05.923Z,6.05
2018-02-10T04:53:44.630Z,5.93
2018-02-10T04:54:25.816Z,5.83
2018-02-10T04:55:06.211Z,5.83
2018-02-10T04:55:46.616Z,5.78
2018-02-10T04:56:27.015Z,5.75
2018-02-10T04:57:07.389Z,5.87
2018-02-10T04:57:47.777Z,5.87
2018-02-10T04:59:35.148Z,6.08
2018-02-10T05:00:15.452Z,6.08
2018-02-10T05:00:55.857Z,6.14
2018-02-10T05:01:36.230Z,6.13
2018-02-10T05:02:16.620Z,6.1
2018-02-10T05:02:57.029Z,6.14
2018-02-10T05:03:37.398Z,6.11
2018-02-10T05:05:29.717Z,6.11
2018-02-10T05:06:10.117Z,6.24
2018-02-10T05:06:50.527Z,6.25
2018-02-10T05:07:31.116Z,6.3
2018-02-10T05:08:11.497Z,6.35
2018-02-10T05:08:51.901Z,6.35
2018-02-10T05:09:32.320Z,6.33
2018-02-10T05:10:12.737Z,6.25
2018-02-10T05:10:53.166Z,6.3
2018-02-10T05:11:33.585Z,6.35
2018-02-10T05:12:14.002Z,6.45
2018-02-10T05:12:54.436Z,6.4
2018-02-10T05:13:34.858Z,6.39
2018-02-10T05:14:15.267Z,6.36
2018-02-10T05:14:55.674Z,6.36
2018-02-10T05:15:36.026Z,6.38
2018-02-10T05:16:16.394Z,6.45
2018-02-10T05:16:56.805Z,6.3
2018-02-10T05:17:37.214Z,6.38
2018-02-10T05:18:17.640Z,6.36
2018-02-10T05:18:58.012Z,6.3
2018-02-10T05:19:38.420Z,6.42
2018-02-10T05:20:18.838Z,6.36
2018-02-10T05:22:11.231Z,6.35
2018-02-10T05:22:51.618Z,6.38
2018-02-10T05:23:32.012Z,6.35
2018-02-10T05:24:12.420Z,6.36
2018-02-10T05:24:52.832Z,6.38
2018-02-10T05:25:33.245Z,6.35
2018-02-10T05:26:13.697Z,6.28
2018-02-10T05:26:54.125Z,6.3
2018-02-10T05:27:34.555Z,6.25
2018-02-10T05:28:14.977Z,6.21
2018-02-10T05:28:55.369Z,6.17
2018-02-10T05:29:35.774Z,6.11
2018-02-10T05:30:16.195Z,6.19
2018-02-10T05:30:56.603Z,6.24
2018-02-10T05:31:37.031Z,6.13
2018-02-10T05:32:17.460Z,6.28
2018-02-10T05:32:57.857Z,6.24
2018-02-10T05:33:38.283Z,6.1
2018-02-10T05:34:18.721Z,6.13
2018-02-10T05:34:59.123Z,6.11
2018-02-10T05:35:39.551Z,6.1
2018-02-10T05:36:19.970Z,6.06
2018-02-10T05:37:00.392Z,5.93
2018-02-10T05:37:40.808Z,5.96
2018-02-10T05:38:21.228Z,5.9
2018-02-10T05:39:01.660Z,5.9
2018-02-10T05:39:42.093Z,5.83
2018-02-10T05:40:22.445Z,5.78
2018-02-10T05:41:02.841Z,5.81
2018-02-10T05:41:43.245Z,5.85
2018-02-10T05:42:23.637Z,5.92
2018-02-10T05:43:04.009Z,5.9
2018-02-10T05:43:44.391Z,5.8
2018-02-10T05:44:24.793Z,5.78
2018-02-10T05:45:05.170Z,5.78
2018-02-10T05:45:45.574Z,5.77
2018-02-10T05:46:25.932Z,5.67
2018-02-10T05:48:03.108Z,5.65
2018-02-10T05:48:43.496Z,5.73
2018-02-10T05:49:23.945Z,5.65
2018-02-10T05:50:04.321Z,5.6
2018-02-10T05:50:44.746Z,5.63
2018-02-10T05:51:25.129Z,5.63
2018-02-10T05:52:05.545Z,5.65
2018-02-10T05:52:45.924Z,5.66
2018-02-10T05:53:26.312Z,5.63
2018-02-10T05:54:06.732Z,5.65
2018-02-10T05:54:47.097Z,5.51
2018-02-10T05:55:27.486Z,5.49
2018-02-10T05:56:07.850Z,5.47
2018-02-10T05:56:48.248Z,5.44
2018-02-10T05:57:28.625Z,5.33
2018-02-10T05:58:09.028Z,5.33
2018-02-10T05:58:49.420Z,5.26
2018-02-10T05:59:29.806Z,5.3
2018-02-10T06:00:10.183Z,5.32
2018-02-10T06:00:50.548Z,5.27
2018-02-10T06:01:30.939Z,5.24
2018-02-10T06:02:11.315Z,5.32
2018-02-10T06:02:51.725Z,5.29
2018-02-10T06:03:32.155Z,5.33
2018-02-10T06:04:12.485Z,5.27
2018-02-10T06:04:52.883Z,5.37
2018-02-10T06:05:33.290Z,5.33
2018-02-10T06:06:13.682Z,5.23
2018-02-10T06:06:54.091Z,5.27
2018-02-10T06:07:34.496Z,5.41
2018-02-10T06:08:14.900Z,5.33
2018-02-10T06:08:55.305Z,5.38
2018-02-10T06:09:35.735Z,5.23
2018-02-10T06:10:16.151Z,5.26
2018-02-10T06:10:56.549Z,5.32
2018-02-10T06:11:36.967Z,5.27
2018-02-10T06:12:17.312Z,5.23
2018-02-10T06:12:57.684Z,5.3
2018-02-10T06:14:34.864Z,5.26
2018-02-10T06:15:15.256Z,5.3
2018-02-10T06:15:55.691Z,5.24
2018-02-10T06:16:36.088Z,5.23
2018-02-10T06:17:16.653Z,5.26
2018-02-10T06:17:57.060Z,5.27
2018-02-10T06:18:37.487Z,5.27
2018-02-10T06:19:17.899Z,5.24
2018-02-10T06:19:58.295Z,5.26
2018-02-10T06:20:38.703Z,5.22
2018-02-10T06:21:19.106Z,5.37
2018-02-10T06:21:59.484Z,5.26
2018-02-10T06:22:39.886Z,5.35
2018-02-10T06:23:20.286Z,5.26
2018-02-10T06:24:00.676Z,5.22
2018-02-10T06:24:41.045Z,5.2
2018-02-10T06:25:21.434Z,5.19
2018-02-10T06:26:01.800Z,5.19
2018-02-10T06:26:42.194Z,5.06
2018-02-10T06:27:22.577Z,5.06
2018-02-10T06:28:02.968Z,5.05
2018-02-10T06:28:43.376Z,5.04
2018-02-10T06:29:23.755Z,4.96
2018-02-10T06:30:04.156Z,4.93
2018-02-10T06:30:44.531Z,4.88
2018-02-10T06:31:24.939Z,4.77
2018-02-10T06:32:05.330Z,4.75
2018-02-10T06:32:45.715Z,4.68
2018-02-10T06:33:26.112Z,4.61
2018-02-10T06:34:06.554Z,4.61
2018-02-10T06:34:46.948Z,4.57
2018-02-10T06:35:27.340Z,4.71
2018-02-10T06:36:07.740Z,4.57
2018-02-10T06:36:48.130Z,4.64
2018-02-10T06:37:28.539Z,4.77
2018-02-10T06:38:08.957Z,4.77
2018-02-10T06:39:46.103Z,4.94
2018-02-10T06:40:26.555Z,4.91
2018-02-10T06:41:06.952Z,4.9
2018-02-10T06:41:47.354Z,4.93
2018-02-10T06:42:27.819Z,4.9
2018-02-10T06:43:08.195Z,4.9
2018-02-10T06:43:48.621Z,4.94
2018-02-10T06:44:29.023Z,4.87
2018-02-10T06:45:09.652Z,4.96
2018-02-10T06:45:49.883Z,4.93
2018-02-10T06:46:30.259Z,4.99
2018-02-10T06:48:27.685Z,5.06
2018-02-10T06:49:08.388Z,5.02
2018-02-10T06:49:48.809Z,5.01
2018-02-10T06:50:29.229Z,4.93
2018-02-10T06:51:09.650Z,4.96
2018-02-10T06:51:50.043Z,4.97
2018-02-10T06:52:30.447Z,4.96
2018-02-10T06:53:10.848Z,4.84
2018-02-10T06:53:51.265Z,4.96
2018-02-10T06:54:31.669Z,4.9
2018-02-10T06:55:12.052Z,4.91
2018-02-10T06:55:52.433Z,4.94
2018-02-10T06:56:32.819Z,5.04
2018-02-10T06:58:20.549Z,4.96
2018-02-10T06:59:00.716Z,4.83
2018-02-10T06:59:41.072Z,4.88
2018-02-10T07:00:21.477Z,4.83
2018-02-10T07:01:01.902Z,4.83
2018-02-10T07:01:42.279Z,4.75
2018-02-10T07:02:22.742Z,4.65
2018-02-10T07:03:03.115Z,4.51
2018-02-10T07:03:43.533Z,4.56
2018-02-10T07:04:23.933Z,4.49
2018-02-10T07:05:04.332Z,4.44
2018-02-10T07:05:44.745Z,4.28
2018-02-10T07:06:25.153Z,4.18
2018-02-10T07:07:05.563Z,4.07
2018-02-10T07:07:45.988Z,3.98
2018-02-10T07:08:26.371Z,3.84
2018-02-10T07:09:06.773Z,3.81
2018-02-10T07:09:47.197Z,3.78
2018-02-10T07:10:27.567Z,3.67
2018-02-10T07:11:07.962Z,3.64
2018-02-10T07:11:48.389Z,3.62
2018-02-10T07:12:28.805Z,3.63
2018-02-10T07:13:09.208Z,3.57
2018-02-10T07:13:49.637Z,3.57
2018-02-10T07:14:30.028Z,3.64
2018-02-10T07:15:10.432Z,3.7
2018-02-10T07:15:50.816Z,3.82
2018-02-10T07:16:31.221Z,3.82
2018-02-10T07:17:11.628Z,3.71
2018-02-10T07:17:52.049Z,3.74
2018-02-10T07:18:32.471Z,3.71
2018-02-10T07:19:12.897Z,3.75
2018-02-10T07:19:53.276Z,3.77
2018-02-10T07:20:33.704Z,3.8
2018-02-10T07:21:14.120Z,3.84
2018-02-10T07:21:54.538Z,3.95
2018-02-10T07:22:34.967Z,3.98
2018-02-10T07:23:15.365Z,3.96
2018-02-10T07:23:55.767Z,3.95
2018-02-10T07:24:36.151Z,3.95
2018-02-10T07:25:16.542Z,4.04
2018-02-10T07:25:56.942Z,3.99
2018-02-10T07:26:37.358Z,3.99
2018-02-10T07:28:25.160Z,4.08
2018-02-10T07:29:06.199Z,4.02
2018-02-10T07:29:46.256Z,3.92
2018-02-10T07:30:26.687Z,4
2018-02-10T07:31:07.062Z,3.99
2018-02-10T07:31:47.474Z,3.92
2018-02-10T07:32:27.873Z,3.81
2018-02-10T07:33:08.294Z,3.81
2018-02-10T07:33:48.671Z,3.9
2018-02-10T07:34:29.084Z,3.96
2018-02-10T07:35:09.527Z,3.89
2018-02-10T07:35:49.882Z,3.95
2018-02-10T07:36:30.257Z,3.81
2018-02-10T07:37:10.640Z,3.81
2018-02-10T07:37:51.010Z,3.77
2018-02-10T07:38:31.401Z,3.75
2018-02-10T07:39:11.814Z,3.72
2018-02-10T07:39:52.205Z,3.77
2018-02-10T07:40:32.643Z,3.78
2018-02-10T07:41:12.993Z,3.96
2018-02-10T07:41:53.393Z,4.02
2018-02-10T07:42:33.806Z,4.02
2018-02-10T07:43:14.236Z,4.13
2018-02-10T07:43:54.665Z,4.26
2018-02-10T07:44:35.080Z,4.31
2018-02-10T07:45:15.494Z,4.32
2018-02-10T07:45:55.922Z,4.35
2018-02-10T07:46:36.348Z,4.29
2018-02-10T07:47:16.744Z,4.35
2018-02-10T07:47:57.164Z,4.31
2018-02-10T07:48:37.582Z,4.25
2018-02-10T07:49:18.022Z,4.2
2018-02-10T07:49:58.424Z,4.17
2018-02-10T07:50:38.885Z,4.06
2018-02-10T07:51:19.270Z,4.02
2018-02-10T07:51:59.643Z,3.95
2018-02-10T07:52:40.077Z,3.99
2018-02-10T07:53:20.505Z,3.88
2018-02-10T07:54:00.925Z,3.88
2018-02-10T07:54:41.340Z,3.82
2018-02-10T07:55:21.764Z,3.81
2018-02-10T07:56:02.202Z,3.81
2018-02-10T07:56:42.581Z,4
2018-02-10T07:57:23.003Z,3.95
2018-02-10T07:58:03.407Z,4.04
2018-02-10T07:58:43.815Z,4.1
2018-02-10T07:59:24.218Z,4.13
2018-02-10T08:00:04.620Z,4.28
2018-02-10T08:00:45.023Z,4.29
2018-02-10T08:01:25.385Z,4.38
2018-02-10T08:02:05.801Z,4.49
2018-02-10T08:02:46.207Z,4.42
2018-02-10T08:03:26.610Z,4.47
2018-02-10T08:04:06.998Z,4.54
2018-02-10T08:04:47.405Z,4.56
2018-02-10T08:05:27.833Z,4.51
2018-02-10T08:06:08.241Z,4.53
2018-02-10T08:06:48.654Z,4.62
2018-02-10T08:07:29.069Z,4.56
2018-02-10T08:09:26.469Z,4.67
2018-02-10T08:10:06.891Z,4.61
2018-02-10T08:10:47.272Z,4.65
2018-02-10T08:11:27.686Z,4.69
2018-02-10T08:12:08.322Z,4.72
2018-02-10T08:12:48.731Z,4.65
2018-02-10T08:13:29.143Z,4.56
2018-02-10T08:14:09.555Z,4.59
2018-02-10T08:14:49.968Z,4.61
2018-02-10T08:15:30.390Z,4.54
2018-02-10T08:16:10.802Z,4.47
2018-02-10T08:16:51.217Z,4.46
2018-02-10T08:17:31.587Z,4.54
2018-02-10T08:18:11.985Z,4.49
2018-02-10T08:18:52.366Z,4.53
2018-02-10T08:19:32.771Z,4.56
2018-02-10T08:20:13.145Z,4.57
2018-02-10T08:20:53.564Z,4.53
2018-02-10T08:21:33.962Z,4.53
2018-02-10T08:22:14.325Z,4.59
2018-02-10T08:22:54.733Z,4.62
2018-02-10T08:23:35.165Z,4.67
2018-02-10T08:24:15.586Z,4.72
2018-02-10T08:24:56.024Z,4.74
2018-02-10T08:25:37.332Z,4.84
2018-02-10T08:26:17.198Z,4.88
2018-02-10T08:26:57.578Z,4.88
2018-02-10T08:27:37.964Z,4.9
2018-02-10T08:28:18.379Z,5.04
2018-02-10T08:28:58.770Z,5.01
2018-02-10T08:29:39.172Z,5.11
2018-02-10T08:30:19.551Z,5.09
2018-02-10T08:30:59.948Z,5.17
2018-02-10T08:31:40.344Z,5.17
2018-02-10T08:32:20.742Z,5.12
2018-02-10T08:33:01.153Z,5.06
2018-02-10T08:33:41.511Z,5.06
2018-02-10T08:34:21.998Z,5.09
2018-02-10T08:35:02.306Z,5.11
2018-02-10T08:35:42.699Z,5.08
2018-02-10T08:36:23.096Z,4.93
2018-02-10T08:37:03.462Z,5.06
2018-02-10T08:37:43.867Z,5.09
2018-02-10T08:38:24.259Z,5.06
2018-02-10T08:39:04.670Z,5.12
2018-02-10T08:39:45.089Z,5.12
2018-02-10T08:40:25.513Z,5.24
2018-02-10T08:41:05.938Z,5.14
2018-02-10T08:41:46.361Z,5.17
2018-02-10T08:42:26.789Z,5.2
2018-02-10T08:43:07.191Z,5.12
2018-02-10T08:43:47.614Z,5.17
2018-02-10T08:44:27.996Z,5.23
2018-02-10T08:45:08.419Z,5.24
2018-02-10T08:45:48.831Z,5.29
2018-02-10T08:46:29.233Z,5.29
2018-02-10T08:47:09.667Z,5.29
2018-02-10T08:47:50.065Z,5.32
2018-02-10T08:48:30.479Z,5.37
2018-02-10T08:49:10.916Z,5.24
2018-02-10T08:49:51.320Z,5.27
2018-02-10T08:50:31.742Z,5.24
2018-02-10T08:51:12.138Z,5.3
2018-02-10T08:51:52.551Z,5.27
2018-02-10T08:52:32.931Z,5.29
2018-02-10T08:53:13.609Z,5.29
2018-02-10T08:53:54.003Z,5.32
2018-02-10T08:54:34.426Z,5.35
2018-02-10T08:55:14.803Z,5.41
2018-02-10T08:56:51.988Z,5.55
2018-02-10T08:57:32.340Z,5.56
2018-02-10T08:58:12.767Z,5.6
2018-02-10T08:58:53.170Z,5.58
2018-02-10T08:59:33.605Z,5.63
2018-02-10T09:00:14.031Z,5.69
2018-02-10T09:00:54.424Z,5.7
2018-02-10T09:01:34.851Z,5.74
2018-02-10T09:02:15.601Z,5.84
2018-02-10T09:02:55.708Z,5.88
2018-02-10T09:03:36.112Z,5.88
2018-02-10T09:04:16.524Z,5.9
2018-02-10T09:04:56.907Z,5.92
2018-02-10T09:07:10.102Z,6.03
2018-02-10T09:07:50.203Z,5.99
2018-02-10T09:09:52.463Z,5.98
2018-02-10T09:10:35.185Z,5.93
2018-02-10T09:11:15.206Z,5.84
2018-02-10T09:11:55.636Z,5.88
2018-02-10T09:12:36.057Z,5.85
2018-02-10T09:13:16.465Z,5.75
2018-02-10T09:13:56.921Z,5.73
2018-02-10T09:14:37.304Z,5.59
2018-02-10T09:15:17.753Z,5.49
2018-02-10T09:15:58.128Z,5.41
2018-02-10T09:16:38.534Z,5.26
2018-02-10T09:17:18.916Z,5.24
2018-02-10T09:17:59.388Z,5.22
2018-02-10T09:18:39.761Z,5.15
2018-02-10T09:19:20.197Z,5.15
2018-02-10T09:20:00.595Z,5.14
2018-02-10T09:20:41.004Z,5.06
2018-02-10T09:21:21.398Z,5.12
2018-02-10T09:22:01.878Z,5.06
2018-02-10T09:22:42.300Z,4.96
2018-02-10T09:23:22.696Z,5.01
2018-02-10T09:24:03.090Z,5.02
2018-02-10T09:24:43.505Z,5.08
2018-02-10T09:25:23.883Z,5.01
2018-02-10T09:26:04.274Z,5.11
2018-02-10T09:26:44.708Z,4.96
2018-02-10T09:27:25.126Z,5.06
2018-02-10T09:28:05.536Z,4.96
2018-02-10T09:28:45.909Z,4.96
2018-02-10T09:29:26.318Z,5.01
2018-02-10T09:30:06.697Z,5.11
2018-02-10T09:31:44.139Z,5.14
2018-02-10T09:32:26.217Z,5.35
2018-02-10T09:33:06.253Z,5.24
2018-02-10T09:33:46.651Z,5.37
2018-02-10T09:34:27.061Z,5.42
2018-02-10T09:35:07.463Z,5.48
2018-02-10T09:35:47.853Z,5.58
2018-02-10T09:36:28.268Z,5.63
2018-02-10T09:37:08.684Z,5.73
2018-02-10T09:37:49.086Z,5.65
2018-02-10T09:38:29.515Z,5.66
2018-02-10T09:39:09.943Z,5.7
2018-02-10T09:39:50.350Z,5.87
2018-02-10T09:40:30.747Z,5.95
2018-02-10T09:41:11.150Z,5.96
2018-02-10T09:41:51.579Z,5.92
2018-02-10T09:42:31.989Z,5.96
2018-02-10T09:43:12.420Z,5.98
2018-02-10T09:43:52.864Z,5.87
2018-02-10T09:44:33.260Z,5.95
2018-02-10T09:45:13.704Z,5.98
2018-02-10T09:45:54.059Z,5.93
2018-02-10T09:46:34.464Z,5.9
2018-02-10T09:47:14.852Z,5.9
2018-02-10T09:47:55.211Z,5.87
2018-02-10T09:48:35.591Z,5.85
2018-02-10T09:49:15.998Z,5.95
2018-02-10T09:49:56.354Z,5.9
2018-02-10T09:50:36.749Z,5.83
2018-02-10T09:51:17.160Z,5.85
2018-02-10T09:51:57.597Z,5.9
2018-02-10T09:52:37.979Z,5.77
2018-02-10T09:53:18.392Z,5.62
2018-02-10T09:53:58.795Z,5.65
2018-02-10T09:55:56.749Z,5.45
2018-02-10T09:56:36.772Z,5.48
2018-02-10T09:57:17.166Z,5.42
2018-02-10T09:57:57.809Z,5.42
2018-02-10T09:58:38.013Z,5.44
2018-02-10T09:59:18.415Z,5.42
2018-02-10T09:59:58.799Z,5.4
2018-02-10T10:00:39.174Z,5.32
2018-02-10T10:01:19.580Z,5.4
2018-02-10T10:01:59.974Z,5.41
2018-02-10T10:02:40.388Z,5.55
2018-02-10T10:03:20.792Z,5.56
2018-02-10T10:04:01.183Z,5.62
2018-02-10T10:04:41.571Z,5.62
2018-02-10T10:43:22.627Z,5.62
2018-02-10T10:44:02.996Z,5.49
2018-02-10T10:44:43.366Z,5.52
2018-02-10T10:45:23.932Z,5.49
2018-02-10T10:46:04.321Z,5.47
2018-02-10T10:46:44.726Z,5.56
2018-02-10T10:47:25.137Z,5.62
2018-02-10T10:48:05.542Z,5.63
2018-02-10T10:48:45.953Z,5.67
2018-02-10T10:49:26.363Z,5.77
2018-02-10T10:50:06.761Z,5.9
2018-02-10T10:50:47.151Z,5.9
2018-02-10T10:51:27.537Z,5.9
2018-02-10T10:52:07.942Z,6.03
2018-02-10T10:52:48.329Z,6.2
2018-02-10T10:53:28.708Z,6.25
2018-02-10T10:54:09.098Z,6.11
2018-02-10T10:54:49.484Z,6.25
2018-02-10T10:56:36.943Z,6.25
2018-02-10T10:57:18.016Z,6.27
2018-02-10T10:57:57.678Z,6.38
2018-02-10T10:58:38.072Z,6.39